createdAt,value
2023-04-02T00:01:49.955Z,9.57
2023-04-02T00:04:26.561Z,9.52
2023-04-02T00:07:19.113Z,9.41
2023-04-02T00:09:49.955Z,9.31
2023-04-02T00:12:22.360Z,9.26
2023-04-02T00:14:58.038Z,9.28
2023-04-02T00:17:28.772Z,9.33
2023-04-02T00:20:02.469Z,9.35
2023-04-02T00:22:34.426Z,9.29
2023-04-02T00:25:14.751Z,9.15
2023-04-02T00:27:45.768Z,9.10
2023-04-02T00:30:17.348Z,9.12
2023-04-02T00:32:49.005Z,9.18
2023-04-02T00:35:24.404Z,9.18
2023-04-02T00:37:56.161Z,9.22
2023-04-02T00:40:30.414Z,9.18
2023-04-02T00:43:04.347Z,9.10
2023-04-02T00:45:39.476Z,9.00
2023-04-02T00:48:29.282Z,8.99
2023-04-02T00:51:04.933Z,8.91
2023-04-02T00:53:38.099Z,8.80
2023-04-02T00:56:19.110Z,8.73
2023-04-02T00:58:54.425Z,8.75
2023-04-02T01:01:28.415Z,8.77
2023-04-02T01:04:01.448Z,8.71
2023-04-02T01:06:35.716Z,8.62
2023-04-02T01:09:29.959Z,8.60
2023-04-02T01:12:37.993Z,8.62
2023-04-02T01:15:15.419Z,8.55
2023-04-02T01:18:01.814Z,8.45
2023-04-02T01:21:01.973Z,8.41
2023-04-02T01:23:37.586Z,8.41
2023-04-02T01:26:15.975Z,8.46
2023-04-02T01:29:01.998Z,8.41
2023-04-02T01:31:34.368Z,8.35
2023-04-02T01:34:09.851Z,8.33
2023-04-02T01:36:47.169Z,8.40
2023-04-02T01:39:28.586Z,8.37
2023-04-02T01:42:09.246Z,8.25
2023-04-02T01:44:44.112Z,8.25
2023-04-02T01:47:16.867Z,8.29
2023-04-02T01:49:48.877Z,8.22
2023-04-02T01:52:27.616Z,8.07
2023-04-02T01:54:57.678Z,8.01
2023-04-02T01:57:30.016Z,8.05
2023-04-02T02:00:08.212Z,8.05
2023-04-02T02:03:00.975Z,8.02
2023-04-02T02:05:33.014Z,7.99
2023-04-02T02:08:04.453Z,7.99
2023-04-02T02:10:40.884Z,7.98
2023-04-02T02:13:16.853Z,7.97
2023-04-02T02:15:47.813Z,8.02
2023-04-02T02:18:23.297Z,8.10
2023-04-02T02:20:55.929Z,8.02
2023-04-02T02:23:25.940Z,8.00
2023-04-02T02:25:57.416Z,8.00
2023-04-02T02:28:32.641Z,7.95
2023-04-02T02:31:06.610Z,7.91
2023-04-02T02:33:42.731Z,7.91
2023-04-02T02:36:22.866Z,7.93
2023-04-02T02:39:02.072Z,8.09
2023-04-02T02:41:44.205Z,8.17
2023-04-02T02:44:20.677Z,8.23
2023-04-02T02:46:54.677Z,8.19
2023-04-02T02:49:31.498Z,8.14
2023-04-02T02:52:10.973Z,8.06
2023-04-02T02:54:51.121Z,7.98
2023-04-02T02:57:28.730Z,8.01
2023-04-02T03:00:02.237Z,7.91
2023-04-02T03:02:36.818Z,7.87
2023-04-02T03:05:10.972Z,7.85
2023-04-02T03:07:42.569Z,7.93
2023-04-02T03:10:20.573Z,8.05
2023-04-02T03:12:57.425Z,8.04
2023-04-02T03:15:36.623Z,7.87
2023-04-02T03:18:13.365Z,7.71
2023-04-02T03:20:49.984Z,7.60
2023-04-02T03:23:25.711Z,7.47
2023-04-02T03:26:02.844Z,7.47
2023-04-02T03:28:38.518Z,7.39
2023-04-02T03:31:15.971Z,7.39
2023-04-02T03:33:51.495Z,7.45
2023-04-02T03:36:28.520Z,7.57
2023-04-02T03:39:09.989Z,7.68
2023-04-02T03:41:46.138Z,7.73
2023-04-02T03:44:27.303Z,7.72
2023-04-02T03:47:03.638Z,7.82
2023-04-02T03:49:40.176Z,7.88
2023-04-02T03:52:15.041Z,7.83
2023-04-02T03:54:53.822Z,7.89
2023-04-02T03:57:32.495Z,7.88
2023-04-02T04:00:09.235Z,7.91
2023-04-02T04:03:05.003Z,7.89
2023-04-02T04:05:40.369Z,7.87
2023-04-02T04:08:18.797Z,7.93
2023-04-02T04:10:54.963Z,7.94
2023-04-02T04:13:36.475Z,7.98
2023-04-02T04:16:12.001Z,7.90
2023-04-02T04:18:51.872Z,7.84
2023-04-02T04:21:31.127Z,7.83
2023-04-02T04:24:21.772Z,7.93
2023-04-02T04:26:58.556Z,7.92
2023-04-02T04:29:45.691Z,7.84
2023-04-02T04:32:32.028Z,7.82
2023-04-02T04:35:17.487Z,7.67
2023-04-02T04:37:53.646Z,7.61
2023-04-02T04:40:29.785Z,7.59
2023-04-02T04:43:05.554Z,7.44
2023-04-02T04:45:46.029Z,7.26
2023-04-02T04:48:22.654Z,7.12
2023-04-02T04:50:59.398Z,7.12
2023-04-02T04:53:31.784Z,6.99
2023-04-02T04:56:18.454Z,6.81
2023-04-02T04:58:55.103Z,6.80
2023-04-02T05:01:32.536Z,6.83
2023-04-02T05:04:11.500Z,6.78
2023-04-02T05:06:51.045Z,6.76
2023-04-02T05:09:28.437Z,6.69
2023-04-02T05:12:08.234Z,6.67
2023-04-02T05:14:43.582Z,6.73
2023-04-02T05:17:21.998Z,6.79
2023-04-02T05:19:57.909Z,6.90
2023-04-02T05:22:38.886Z,6.90
2023-04-02T05:25:21.246Z,6.90
2023-04-02T05:27:58.125Z,6.91
2023-04-02T05:30:54.629Z,6.97
2023-04-02T05:33:28.322Z,6.87
2023-04-02T05:36:04.530Z,6.71
2023-04-02T05:38:40.201Z,6.68
2023-04-02T05:41:22.386Z,6.53
2023-04-02T05:44:00.883Z,6.53
2023-04-02T05:46:36.100Z,6.61
2023-04-02T05:49:11.126Z,6.67
2023-04-02T05:51:47.089Z,6.64
2023-04-02T05:54:25.357Z,6.68
2023-04-02T05:57:04.717Z,6.81
2023-04-02T05:59:41.874Z,6.71
2023-04-02T06:02:24.031Z,6.64
2023-04-02T06:05:01.201Z,6.53
2023-04-02T06:07:42.922Z,6.56
2023-04-02T06:10:20.674Z,6.41
2023-04-02T06:13:03.948Z,6.33
2023-04-02T06:15:41.709Z,6.26
2023-04-02T06:18:20.788Z,6.30
2023-04-02T06:21:02.144Z,6.29
2023-04-02T06:23:50.071Z,6.21
2023-04-02T06:26:28.964Z,6.26
2023-04-02T06:29:06.999Z,6.31
2023-04-02T06:31:42.657Z,6.43
2023-04-02T06:34:18.922Z,6.52
2023-04-02T06:37:02.469Z,6.54
2023-04-02T06:39:34.337Z,6.34
2023-04-02T06:42:13.541Z,6.22
2023-04-02T06:44:53.935Z,6.25
2023-04-02T06:47:47.270Z,6.28
2023-04-02T06:50:31.167Z,6.32
2023-04-02T06:53:08.447Z,6.21
2023-04-02T06:55:47.737Z,6.16
2023-04-02T06:58:22.682Z,6.18
2023-04-02T07:00:54.695Z,6.10
2023-04-02T07:03:52.211Z,6.00
2023-04-02T07:06:43.217Z,5.89
2023-04-02T07:09:15.891Z,5.83
2023-04-02T07:11:50.520Z,5.87
2023-04-02T07:14:22.480Z,5.95
2023-04-02T07:16:54.016Z,6.07
2023-04-02T07:19:25.610Z,6.10
2023-04-02T07:22:00.054Z,6.06
2023-04-02T07:24:36.210Z,5.94
2023-04-02T07:27:07.080Z,5.94
2023-04-02T07:29:42.613Z,5.97
2023-04-02T07:32:14.448Z,5.96
2023-04-02T07:34:45.481Z,6.07
2023-04-02T07:37:17.135Z,6.02
2023-04-02T07:39:47.885Z,6.03
2023-04-02T07:42:18.548Z,6.15
2023-04-02T07:44:49.370Z,6.05
2023-04-02T07:47:20.136Z,5.95
2023-04-02T07:49:50.990Z,5.93
2023-04-02T07:52:22.256Z,5.91
2023-04-02T07:54:53.237Z,5.84
2023-04-02T07:57:23.983Z,5.77
2023-04-02T07:59:56.801Z,5.65
2023-04-02T08:02:26.078Z,5.66
2023-04-02T08:04:57.090Z,5.67
2023-04-02T08:07:29.950Z,5.58
2023-04-02T08:10:00.663Z,5.51
2023-04-02T08:12:31.549Z,5.44
2023-04-02T08:15:02.179Z,5.38
2023-04-02T08:17:33.764Z,5.40
2023-04-02T08:20:06.653Z,5.40
2023-04-02T08:22:37.703Z,5.42
2023-04-02T08:25:10.763Z,5.47
2023-04-02T08:27:42.138Z,5.48
2023-04-02T08:30:17.140Z,5.44
2023-04-02T08:32:48.287Z,5.42
2023-04-02T08:35:19.803Z,5.48
2023-04-02T08:37:50.593Z,5.41
2023-04-02T08:40:26.791Z,5.37
2023-04-02T08:43:23.729Z,5.36
2023-04-02T08:46:01.783Z,5.31
2023-04-02T08:48:34.665Z,5.28
2023-04-02T08:51:07.405Z,5.22
2023-04-02T08:53:40.020Z,5.18
2023-04-02T08:56:19.043Z,5.17
2023-04-02T08:58:52.079Z,5.15
2023-04-02T09:01:34.856Z,5.17
2023-04-02T09:04:14.644Z,5.22
2023-04-02T09:06:46.440Z,5.25
2023-04-02T09:09:20.813Z,5.29
2023-04-02T09:11:56.438Z,5.31
2023-04-02T09:14:37.705Z,5.31
2023-04-02T09:17:21.549Z,5.31
2023-04-02T09:20:09.806Z,5.24
2023-04-02T09:22:40.759Z,5.14
2023-04-02T09:25:16.183Z,5.07
2023-04-02T09:27:50.884Z,5.05
2023-04-02T09:30:39.801Z,5.09
2023-04-02T09:33:11.001Z,5.07
2023-04-02T09:35:58.661Z,5.08
2023-04-02T09:38:31.777Z,5.05
2023-04-02T09:41:07.388Z,5.04
2023-04-02T09:43:39.671Z,5.03
2023-04-02T09:46:24.670Z,5.02
2023-04-02T09:49:01.095Z,5.01
2023-04-02T09:51:35.223Z,4.96
2023-04-02T09:54:17.250Z,4.95
2023-04-02T09:59:46.023Z,5.07
2023-04-02T10:02:29.915Z,5.16
2023-04-02T10:05:07.185Z,5.22
2023-04-02T10:07:41.372Z,5.23
2023-04-02T10:10:25.084Z,5.19
2023-04-02T10:13:03.634Z,5.13
2023-04-02T10:15:38.722Z,5.07
2023-04-02T10:18:17.610Z,5.08
2023-04-02T10:20:51.430Z,5.13
2023-04-02T10:23:26.020Z,5.16
2023-04-02T10:26:09.961Z,5.15
2023-04-02T10:28:52.552Z,5.14
2023-04-02T10:31:26.552Z,5.13
2023-04-02T10:34:02.510Z,5.12
2023-04-02T10:36:49.257Z,5.14
2023-04-02T10:39:25.161Z,5.23
2023-04-02T10:42:04.910Z,5.32
2023-04-02T10:44:51.896Z,5.37
2023-04-02T10:47:35.115Z,5.39
2023-04-02T10:50:25.581Z,5.43
2023-04-02T10:53:09.597Z,5.44
2023-04-02T10:55:56.221Z,5.49
2023-04-02T10:58:31.345Z,5.53
2023-04-02T11:01:09.023Z,5.55
2023-04-02T11:03:44.780Z,5.53
2023-04-02T11:06:22.199Z,5.56
2023-04-02T11:08:58.788Z,5.58
2023-04-02T11:11:33.409Z,5.62
2023-04-02T11:14:11.317Z,5.59
2023-04-02T11:16:44.879Z,5.64
2023-04-02T11:19:33.592Z,5.73
2023-04-02T11:22:06.899Z,5.76
2023-04-02T11:24:46.847Z,5.78
2023-04-02T11:27:26.775Z,5.86
2023-04-02T11:30:06.662Z,5.90
2023-04-02T11:32:42.550Z,5.91
2023-04-02T11:35:37.219Z,5.92
2023-04-02T11:38:39.329Z,5.94
2023-04-02T11:41:10.455Z,6.01
2023-04-02T11:44:00.952Z,5.98
2023-04-02T11:46:52.816Z,5.95
2023-04-02T11:49:57.561Z,5.88
2023-04-02T11:52:31.844Z,5.93
2023-04-02T11:55:22.463Z,5.97
2023-04-02T11:58:28.998Z,6.00
2023-04-02T12:01:36.180Z,6.08
2023-04-02T12:04:29.838Z,6.10
2023-04-02T12:07:19.492Z,6.08
2023-04-02T12:09:53.714Z,6.07
2023-04-02T12:12:33.340Z,6.09
2023-04-02T12:15:07.729Z,6.09
2023-04-02T12:17:40.382Z,6.11
2023-04-02T12:20:29.427Z,6.17
2023-04-02T12:23:00.956Z,6.30
2023-04-02T12:25:34.109Z,6.38
2023-04-02T12:28:18.088Z,6.48
2023-04-02T12:30:49.905Z,6.57
2023-04-02T12:33:37.634Z,6.61
2023-04-02T12:36:19.112Z,6.63
2023-04-02T12:38:52.556Z,6.65
2023-04-02T12:41:27.205Z,6.69
2023-04-02T12:44:02.581Z,6.70
2023-04-02T12:46:35.663Z,6.68
2023-04-02T12:49:10.090Z,6.67
2023-04-02T12:51:41.835Z,6.68
2023-04-02T12:54:17.461Z,6.68
2023-04-02T12:56:48.875Z,6.68
2023-04-02T12:59:33.697Z,6.69
2023-04-02T13:02:18.040Z,6.73
2023-04-02T13:04:54.966Z,6.80
2023-04-02T13:07:29.491Z,6.84
2023-04-02T13:10:09.004Z,6.86
2023-04-02T13:12:42.379Z,6.88
2023-04-02T13:15:25.494Z,6.80
2023-04-02T13:18:19.095Z,6.70
2023-04-02T13:20:59.602Z,6.61
2023-04-02T13:23:38.334Z,6.56
2023-04-02T13:26:19.649Z,6.53
2023-04-02T13:29:00.973Z,6.46
2023-04-02T13:31:33.754Z,6.39
2023-04-02T13:34:03.614Z,6.36
2023-04-02T13:36:37.598Z,6.35
2023-04-02T13:39:08.894Z,6.35
2023-04-02T13:41:44.115Z,6.36
2023-04-02T13:44:26.726Z,6.37
2023-04-02T13:46:59.243Z,6.40
2023-04-02T13:49:31.199Z,6.37
2023-04-02T13:52:05.339Z,6.34
2023-04-02T13:54:44.562Z,6.28
2023-04-02T13:57:15.698Z,6.28
2023-04-02T13:59:46.829Z,6.27
2023-04-02T14:02:23.086Z,6.25
2023-04-02T14:04:59.873Z,6.17
2023-04-02T14:07:48.103Z,6.13
2023-04-02T14:10:31.102Z,6.09
2023-04-02T14:13:17.667Z,6.05
2023-04-02T14:16:16.864Z,6.03
2023-04-02T14:19:05.046Z,6.03
2023-04-02T14:21:53.155Z,6.04
2023-04-02T14:24:34.178Z,5.98
2023-04-02T14:27:28.421Z,5.95
2023-04-02T14:30:12.396Z,5.94
2023-04-02T14:33:01.511Z,5.92
2023-04-02T14:35:38.671Z,5.89
2023-04-02T14:38:20.120Z,5.92
2023-04-02T14:40:55.949Z,5.95
2023-04-02T14:43:31.895Z,5.93
2023-04-02T14:46:04.616Z,5.92
2023-04-02T14:48:43.749Z,5.89
2023-04-02T14:51:22.809Z,5.88
2023-04-02T14:54:04.429Z,5.87
2023-04-02T14:56:40.645Z,5.85
2023-04-02T14:59:29.507Z,5.87
2023-04-02T15:02:04.957Z,5.88
2023-04-02T15:04:42.456Z,5.84
2023-04-02T15:07:20.167Z,5.93
2023-04-02T15:09:56.514Z,5.95
2023-04-02T15:12:32.145Z,5.95
2023-04-02T15:15:15.315Z,5.93
2023-04-02T15:17:46.513Z,5.94
2023-04-02T15:20:20.548Z,5.95
2023-04-02T15:23:03.334Z,5.98
2023-04-02T15:25:46.794Z,6.03
2023-04-02T15:28:28.190Z,6.08
2023-04-02T15:31:04.573Z,6.11
2023-04-02T15:33:42.654Z,6.17
2023-04-02T15:36:42.757Z,6.22
2023-04-02T15:39:27.537Z,6.28
2023-04-02T15:42:11.617Z,6.29
2023-04-02T15:44:49.564Z,6.31
2023-04-02T15:47:25.966Z,6.29
2023-04-02T15:50:06.309Z,6.30
2023-04-02T15:52:47.834Z,6.31
2023-04-02T15:55:33.964Z,6.35
2023-04-02T15:58:30.171Z,6.40
2023-04-02T16:01:13.238Z,6.40
2023-04-02T16:04:10.774Z,6.38
2023-04-02T16:07:03.661Z,6.34
2023-04-02T16:09:49.492Z,6.30
2023-04-02T16:12:25.508Z,6.30
2023-04-02T16:15:05.836Z,6.30
2023-04-02T16:17:45.159Z,6.31
2023-04-02T16:20:25.187Z,6.32
2023-04-02T16:23:06.390Z,6.33
2023-04-02T16:25:53.669Z,6.38
2023-04-02T16:28:25.618Z,6.39
2023-04-02T16:31:05.835Z,6.34
2023-04-02T16:33:49.528Z,6.30
2023-04-02T16:36:33.157Z,6.30
2023-04-02T16:39:12.100Z,6.28
2023-04-02T16:41:51.407Z,6.27
2023-04-02T16:44:41.917Z,6.27
2023-04-02T16:47:39.044Z,6.25
2023-04-02T16:50:23.205Z,6.18
2023-04-02T16:53:02.480Z,6.14
2023-04-02T16:55:44.292Z,6.17
2023-04-02T16:58:35.314Z,6.20
2023-04-02T17:01:11.709Z,6.21
2023-04-02T17:04:01.671Z,6.22
2023-04-02T17:06:43.484Z,6.22
2023-04-02T17:09:26.503Z,6.20
2023-04-02T17:12:04.408Z,6.21
2023-04-02T17:14:42.612Z,6.22
2023-04-02T17:17:16.059Z,6.22
2023-04-02T17:19:48.788Z,6.23
2023-04-02T17:22:22.049Z,6.24
2023-04-02T17:24:56.906Z,6.24
2023-04-02T17:27:30.315Z,6.25
2023-04-02T17:30:06.324Z,6.25
2023-04-02T17:32:37.495Z,6.25
2023-04-02T17:35:22.278Z,6.28
2023-04-02T17:38:01.072Z,6.31
2023-04-02T17:40:37.386Z,6.32
2023-04-02T17:43:19.028Z,6.34
2023-04-02T17:45:52.992Z,6.37
2023-04-02T17:48:32.169Z,6.39
2023-04-02T17:51:16.554Z,6.40
2023-04-02T17:54:01.187Z,6.42
2023-04-02T17:56:47.600Z,6.42
2023-04-02T17:59:32.955Z,6.45
2023-04-02T18:02:21.933Z,6.44
2023-04-02T18:05:01.738Z,6.42
2023-04-02T18:07:47.196Z,6.73
2023-04-02T18:10:25.100Z,6.85
2023-04-02T18:13:01.199Z,6.84
2023-04-02T18:15:46.185Z,6.78
2023-04-02T18:18:34.739Z,6.74
2023-04-02T18:21:14.566Z,6.68
2023-04-02T18:23:59.860Z,6.64
2023-04-02T18:26:40.670Z,6.59
2023-04-02T18:29:23.616Z,6.57
2023-04-02T18:32:05.827Z,6.53
2023-04-02T18:34:51.053Z,6.49
2023-04-02T18:37:33.554Z,6.46
2023-04-02T18:40:22.954Z,6.44
2023-04-02T18:43:03.396Z,6.42
2023-04-02T18:45:46.178Z,6.39
2023-04-02T18:48:30.702Z,6.36
2023-04-02T18:51:04.772Z,6.32
2023-04-02T18:53:37.287Z,6.29
2023-04-02T18:56:13.000Z,6.25
2023-04-02T18:58:57.685Z,6.22
2023-04-02T19:01:35.120Z,6.20
2023-04-02T19:04:11.079Z,6.19
2023-04-02T19:06:45.941Z,6.18
2023-04-02T19:09:23.273Z,6.19
2023-04-02T19:11:54.058Z,6.19
2023-04-02T19:14:24.824Z,6.18
2023-04-02T19:17:07.168Z,6.19
2023-04-02T19:19:44.376Z,6.20
2023-04-02T19:22:22.299Z,6.20
2023-04-02T19:25:14.849Z,6.20
2023-04-02T19:27:59.449Z,6.20
2023-04-02T19:30:41.293Z,6.19
2023-04-02T19:33:25.351Z,6.19
2023-04-02T19:35:59.998Z,6.18
2023-04-02T19:38:48.604Z,6.18
2023-04-02T19:41:30.635Z,6.16
2023-04-02T19:44:01.706Z,6.15
2023-04-02T19:46:32.693Z,6.15
2023-04-02T19:49:09.194Z,6.14
2023-04-02T19:51:39.963Z,6.12
2023-04-02T19:54:10.813Z,6.11
2023-04-02T19:56:42.467Z,6.06
2023-04-02T19:59:18.095Z,6.04
2023-04-02T20:01:49.893Z,6.05
2023-04-02T20:04:20.750Z,6.04
2023-04-02T20:06:51.859Z,6.02
2023-04-02T20:09:22.715Z,6.00
2023-04-02T20:11:53.524Z,6.01
2023-04-02T20:14:24.273Z,6.01
2023-04-02T20:16:55.006Z,6.00
2023-04-02T20:19:26.063Z,6.02
2023-04-02T20:21:56.673Z,6.03
2023-04-02T20:24:27.444Z,6.03
2023-04-02T20:26:58.108Z,6.03
2023-04-02T20:29:30.815Z,6.00
2023-04-02T20:32:01.526Z,6.00
2023-04-02T20:34:32.670Z,6.01
2023-04-02T20:37:03.721Z,6.03
2023-04-02T20:39:34.437Z,6.03
2023-04-02T20:42:05.528Z,6.02
2023-04-02T20:44:36.289Z,5.99
2023-04-02T20:47:08.179Z,5.98
2023-04-02T20:49:39.267Z,5.98
2023-04-02T20:52:10.728Z,5.98
2023-04-02T20:54:41.701Z,5.98
2023-04-02T20:57:13.704Z,5.98
2023-04-02T20:59:44.759Z,5.96
2023-04-02T21:02:15.481Z,5.92
2023-04-02T21:04:46.198Z,5.86
2023-04-02T21:07:16.959Z,5.78
2023-04-02T21:09:47.735Z,5.75
2023-04-02T21:12:18.687Z,5.75
2023-04-02T21:14:49.386Z,5.72
2023-04-02T21:17:20.428Z,5.67
2023-04-02T21:19:51.244Z,5.64
2023-04-02T21:22:21.964Z,5.61
2023-04-02T21:24:53.113Z,5.56
2023-04-02T21:27:25.959Z,5.51
2023-04-02T21:29:55.200Z,5.50
2023-04-02T21:32:25.948Z,5.50
2023-04-02T21:34:56.792Z,5.48
2023-04-02T21:37:27.677Z,5.47
2023-04-02T21:39:58.394Z,5.45
2023-04-02T21:42:29.185Z,5.43
2023-04-02T21:44:59.884Z,5.42
2023-04-02T21:47:30.601Z,5.42
2023-04-02T21:50:01.452Z,5.40
2023-04-02T21:52:32.475Z,5.36
2023-04-02T21:55:03.331Z,5.36
2023-04-02T21:57:34.085Z,5.32
2023-04-02T22:00:08.752Z,5.29
2023-04-02T22:02:39.585Z,5.30
2023-04-02T22:05:11.331Z,5.31
2023-04-02T22:07:41.940Z,5.31
2023-04-02T22:10:13.361Z,5.29
2023-04-02T22:12:44.333Z,5.27
2023-04-02T22:15:15.622Z,5.25
2023-04-02T22:17:46.358Z,5.21
2023-04-02T22:20:17.164Z,5.15
2023-04-02T22:22:47.818Z,5.13
2023-04-02T22:25:18.604Z,5.13
2023-04-02T22:27:52.061Z,5.09
2023-04-02T22:30:23.015Z,5.04
2023-04-02T22:32:53.852Z,5.02
2023-04-02T22:35:24.786Z,5.00
2023-04-02T22:37:55.910Z,4.95
2023-04-02T22:40:27.053Z,4.92
2023-04-02T22:42:57.761Z,4.87
2023-04-02T22:45:28.606Z,4.84
2023-04-02T22:47:59.288Z,4.83
2023-04-02T22:53:20.717Z,4.72
2023-04-02T22:55:52.310Z,4.69
2023-04-02T22:58:23.875Z,4.69
2023-04-02T23:00:54.581Z,4.68
2023-04-02T23:03:25.193Z,4.64
2023-04-02T23:06:03.181Z,4.61
2023-04-02T23:08:33.922Z,4.59
2023-04-02T23:11:07.520Z,4.58
2023-04-02T23:13:39.279Z,4.55
2023-04-02T23:16:13.835Z,4.53
2023-04-02T23:18:48.050Z,4.51
2023-04-02T23:21:20.494Z,4.46
2023-04-02T23:23:51.769Z,4.34
2023-04-02T23:26:24.250Z,4.37
2023-04-02T23:28:54.880Z,4.33
2023-04-02T23:31:26.016Z,4.28
2023-04-02T23:33:56.708Z,4.23
2023-04-02T23:36:29.215Z,4.19
2023-04-02T23:39:01.880Z,4.16
2023-04-02T23:41:33.275Z,4.14
2023-04-02T23:44:05.028Z,4.10
2023-04-02T23:46:36.382Z,4.07
2023-04-02T23:49:07.538Z,4.02
2023-04-02T23:51:38.539Z,3.97
2023-04-02T23:54:09.304Z,3.94
2023-04-02T23:56:40.303Z,3.94
2023-04-02T23:59:11.032Z,3.92
